Providence, Rhode Island
Traffic Map
Current Weather Conditions
Providence, Rhode Island
Few Clouds
Few Clouds
50°
Feels Like: 50°
Wind Chill: 50° Ceiling: Unl
Heat Index: 50° Visibility: 10mi
Dew Point: 37° Wind: 13mph
Humidity: 61% Direction: 360° (N)
Pressure: 30.33in Gusts: 0mph
Raw Report DataKPVD 191151Z 36011KT 10SM FEW065 FEW250 10/03 A3033 RMK AO2 SLP271 T01000028 10128 20094 51034
Traffic Incident Summary
Active as of:
Severity:
Category:
InformationThere was an issue retrieving the traffic information for this location. Please try a different location or try again shortly.
Advertisements
Track Severe Weather on mobile